Time;durP1;ratioP1;P1;durP2;ratioP2;P2;SDS_P1;SDS_P2;PMS_P1;PMS_P2;Temp;Humidity;BMP_temperature;BMP_pressure;BME280_temperature;BME280_humidity;BME280_pressure;Samples;Min_cycle;Max_cycle;Signal;HPM_P1;HPM_P2
2022/08/25 00:00:48;;;;;;;;;;;;;;;25.36;48.06;154034.67;1733819;82;20182;-61
2022/08/25 00:03:15;;;;;;;;;;;;;;;25.34;47.88;154029.44;1734129;82;20198;-61
2022/08/25 00:05:42;;;;;;;;;;;;;;;25.31;47.94;154021.53;1723812;82;20429;-60
2022/08/25 00:08:09;;;;;;;;;;;;;;;25.30;47.95;154018.92;1706571;84;20153;-70
2022/08/25 00:10:36;;;;;;;;;;;;;;;25.28;47.98;154013.69;1706830;84;22412;-70
2022/08/25 00:13:03;;;;;;;;;;;;;;;25.25;47.72;154005.83;1706537;83;20183;-70
2022/08/25 00:15:31;;;;;;;;;;;;;;;25.23;46.88;154000.59;1707179;84;20132;-69
2022/08/25 00:17:59;;;;;;;;;;;;;;;25.21;47.07;153995.36;1706356;84;20395;-71
2022/08/25 00:20:27;;;;;;;;;;;;;;;25.17;46.40;153986.17;1705405;84;20187;-70
2022/08/25 00:22:55;;;;;;;;;;;;;;;25.15;46.14;153982.27;1705090;84;21250;-70
2022/08/25 00:25:22;;;;;;;;;;;;;;;25.11;45.85;153971.80;1704936;84;20291;-70
2022/08/25 00:27:50;;;;;;;;;;;;;;;25.10;45.68;153969.17;1701380;83;20180;-70
2022/08/25 00:30:17;;;;;;;;;;;;;;;25.09;46.04;153965.22;1701284;83;20196;-70
2022/08/25 00:32:45;;;;;;;;;;;;;;;25.06;46.04;153958.66;1701698;82;20457;-70
2022/08/25 00:35:12;;;;;;;;;;;;;;;25.04;45.82;153953.42;1735125;81;21197;-70
2022/08/25 00:37:41;;;;;;;;;;;;;;;25.01;45.08;153945.56;1735073;82;20993;-70
2022/08/25 00:40:08;;;;;;;;;;;;;;;25.01;45.38;153945.56;1735081;82;20195;-69
2022/08/25 00:42:37;;;;;;;;;;;;;;;24.99;45.60;153940.33;1735091;82;20167;-70
2022/08/25 00:45:05;;;;;;;;;;;;;;;24.97;45.63;153935.09;1735236;82;20179;-70
2022/08/25 00:47:33;;;;;;;;;;;;;;;24.94;45.69;153928.53;1735772;82;21842;-70
2022/08/25 00:50:00;;;;;;;;;;;;;;;24.94;45.49;153927.25;1735218;82;20179;-69
2022/08/25 00:52:36;;;;;;;;;;;;;;;24.93;45.46;153924.63;1735688;82;20400;-70
2022/08/25 00:55:10;;;;;;;;;;;;;;;24.92;45.26;153922.02;1735320;81;20531;-70
2022/08/25 00:57:42;;;;;;;;;;;;;;;24.92;45.14;153923.30;1735060;82;20202;-69
2022/08/25 01:00:18;;;;;;;;;;;;;;;24.94;45.27;153927.25;1735245;82;21244;-69
2022/08/25 01:02:44;;;;;;;;;;;;;;;24.95;45.62;153929.86;1735451;81;20179;-69
2022/08/25 01:05:11;;;;;;;;;;;;;;;24.94;45.36;153928.53;1729877;82;20151;-70
2022/08/25 01:07:38;;;;;;;;;;;;;;;24.95;45.79;153929.86;1702667;84;20871;-70
2022/08/25 01:10:06;;;;;;;;;;;;;;;24.95;46.09;153929.86;1703026;83;20185;-71
2022/08/25 01:12:33;;;;;;;;;;;;;;;24.95;46.17;153929.86;1703302;84;20556;-69
2022/08/25 01:15:01;;;;;;;;;;;;;;;24.93;46.27;153924.63;1702696;84;20194;-69
2022/08/25 01:17:35;;;;;;;;;;;;;;;24.91;46.06;153919.39;1703168;83;21067;-70
2022/08/25 01:20:02;;;;;;;;;;;;;;;24.88;46.03;153914.16;1689456;83;20241;-70
2022/08/25 01:22:28;;;;;;;;;;;;;;;24.86;45.90;153907.59;1717876;82;20591;-70
2022/08/25 01:25:00;;;;;;;;;;;;;;;24.84;45.95;153902.36;1717392;82;21903;-70
2022/08/25 01:27:27;;;;;;;;;;;;;;;24.82;45.96;153898.41;1699118;83;20210;-70
2022/08/25 01:29:54;;;;;;;;;;;;;;;24.80;45.76;153893.17;1691378;84;20233;-69
2022/08/25 01:32:21;;;;;;;;;;;;;;;24.79;45.68;153890.56;1691525;83;20230;-70
2022/08/25 01:34:48;;;;;;;;;;;;;;;24.79;45.81;153889.27;1714819;83;20455;-69
2022/08/25 01:37:17;;;;;;;;;;;;;;;24.77;46.38;153884.03;1718550;82;39303;-70
2022/08/25 01:39:45;;;;;;;;;;;;;;;24.75;46.70;153880.09;1718745;82;20447;-69
2022/08/25 01:42:15;;;;;;;;;;;;;;;24.73;46.86;153874.80;1718565;82;20557;-68
2022/08/25 01:44:43;;;;;;;;;;;;;;;24.70;46.89;153868.23;1718641;82;20184;-69
2022/08/25 01:47:09;;;;;;;;;;;;;;;24.68;47.17;153863.00;1718568;83;20388;-69
2022/08/25 01:49:36;;;;;;;;;;;;;;;24.66;47.13;153857.77;1718557;82;21811;-69
2022/08/25 01:52:13;;;;;;;;;;;;;;;24.65;47.29;153853.81;1718375;83;20197;-70
2022/08/25 01:54:39;;;;;;;;;;;;;;;24.64;47.20;153851.19;1718984;83;20180;-70
2022/08/25 01:57:06;;;;;;;;;;;;;;;24.63;46.69;153848.58;1718410;83;20176;-69
2022/08/25 01:59:33;;;;;;;;;;;;;;;24.63;47.33;153848.58;1718564;83;20181;-70
2022/08/25 02:02:00;;;;;;;;;;;;;;;24.60;47.27;153843.34;1718299;83;21187;-70
2022/08/25 02:04:30;;;;;;;;;;;;;;;24.59;47.60;153839.44;1719089;83;20184;-70
2022/08/25 02:06:56;;;;;;;;;;;;;;;24.57;48.17;153835.48;1694194;83;20214;-71
2022/08/25 02:09:23;;;;;;;;;;;;;;;24.55;48.44;153830.25;1691106;84;20198;-70
2022/08/25 02:11:50;;;;;;;;;;;;;;;24.54;46.88;153826.36;1702429;83;20180;-70
2022/08/25 02:14:18;;;;;;;;;;;;;;;24.54;46.93;153827.64;1718764;83;21055;-70
2022/08/25 02:16:47;;;;;;;;;;;;;;;24.54;46.89;153827.64;1718296;83;20501;-70
2022/08/25 02:19:14;;;;;;;;;;;;;;;24.53;46.68;153823.69;1702400;83;20222;-61
2022/08/25 02:21:41;;;;;;;;;;;;;;;24.51;46.80;153819.78;1691368;84;20466;-61
2022/08/25 02:24:08;;;;;;;;;;;;;;;24.50;46.21;153815.84;1690773;84;20528;-61
2022/08/25 02:26:35;;;;;;;;;;;;;;;24.48;47.02;153811.94;1696218;82;21134;-61
2022/08/25 02:29:02;;;;;;;;;;;;;;;24.47;47.18;153809.33;1717013;83;20198;-61
2022/08/25 02:31:29;;;;;;;;;;;;;;;24.44;46.83;153802.75;1717355;83;20596;-61
2022/08/25 02:33:56;;;;;;;;;;;;;;;24.42;46.93;153796.19;1726031;81;20191;-61
2022/08/25 02:36:23;;;;;;;;;;;;;;;24.39;47.09;153788.34;1735151;82;20235;-61
2022/08/25 02:38:50;;;;;;;;;;;;;;;24.37;46.81;153783.11;1734869;81;21229;-61
2022/08/25 02:41:19;;;;;;;;;;;;;;;24.36;47.08;153780.50;1735068;82;20519;-61
2022/08/25 02:43:47;;;;;;;;;;;;;;;24.32;47.05;153771.36;1734763;82;20215;-61
2022/08/25 02:46:15;;;;;;;;;;;;;;;24.30;47.06;153767.41;1735117;82;20175;-62
2022/08/25 02:48:42;;;;;;;;;;;;;;;24.28;47.13;153762.17;1735390;82;20456;-62
2022/08/25 02:51:22;;;;;;;;;;;;;;;24.26;47.15;153756.94;1709670;84;20166;-61
2022/08/25 02:53:49;;;;;;;;;;;;;;;24.25;47.64;153754.33;1709373;84;20488;-61
2022/08/25 02:56:17;;;;;;;;;;;;;;;24.22;47.86;153746.47;1709143;84;20130;-61
2022/08/25 02:58:44;;;;;;;;;;;;;;;24.20;48.81;153741.19;1709357;84;20133;-61
2022/08/25 03:01:11;;;;;;;;;;;;;;;24.19;48.79;153738.58;1709118;84;20202;-60
2022/08/25 03:03:39;;;;;;;;;;;;;;;24.17;47.73;153733.34;1709559;84;21216;-69
2022/08/25 03:06:08;;;;;;;;;;;;;;;24.16;47.86;153730.72;1707477;84;20166;-70
2022/08/25 03:08:36;;;;;;;;;;;;;;;24.15;48.04;153728.11;1706081;84;20150;-70
2022/08/25 03:11:04;;;;;;;;;;;;;;;24.14;47.87;153726.83;1705918;84;20182;-69
2022/08/25 03:13:31;;;;;;;;;;;;;;;24.14;48.00;153725.50;1706466;84;20178;-70
2022/08/25 03:15:58;;;;;;;;;;;;;;;24.13;47.90;153722.88;1706237;84;21135;-69
2022/08/25 03:18:25;;;;;;;;;;;;;;;24.15;47.82;153728.11;1706353;84;20137;-70
2022/08/25 03:20:52;;;;;;;;;;;;;;;24.14;48.05;153725.50;1705859;84;20185;-70
2022/08/25 03:23:18;;;;;;;;;;;;;;;24.14;48.16;153725.50;1706048;84;20414;-61
2022/08/25 03:28:31;;;;;;;;;;;;;;;24.13;48.46;153722.88;1705927;84;21143;-61
2022/08/25 03:31:01;;;;;;;;;;;;;;;24.14;48.08;153725.50;1705680;84;20426;-61
2022/08/25 03:33:28;;;;;;;;;;;;;;;24.14;48.41;153726.83;1716396;82;20558;-61
2022/08/25 03:35:55;;;;;;;;;;;;;;;24.15;48.46;153728.11;1738489;82;20797;-61
2022/08/25 03:38:22;;;;;;;;;;;;;;;24.15;48.43;153729.44;1738859;82;20199;-61
2022/08/25 03:40:49;;;;;;;;;;;;;;;24.15;48.87;153729.44;1738724;82;21087;-61
2022/08/25 03:43:17;;;;;;;;;;;;;;;24.14;48.49;153726.83;1738429;82;20159;-61
2022/08/25 03:45:43;;;;;;;;;;;;;;;24.14;48.12;153726.83;1738524;82;20473;-61
2022/08/25 03:48:10;;;;;;;;;;;;;;;24.15;48.57;153728.11;1738602;82;20618;-61
2022/08/25 03:50:39;;;;;;;;;;;;;;;24.15;48.44;153729.44;1732540;82;20169;-61
2022/08/25 03:53:06;;;;;;;;;;;;;;;24.14;47.92;153726.83;1703371;83;22008;-61
2022/08/25 03:55:33;;;;;;;;;;;;;;;24.15;48.34;153728.11;1728277;83;20188;-61
2022/08/25 03:57:59;;;;;;;;;;;;;;;24.17;48.31;153733.34;1727889;82;20217;-61
2022/08/25 04:00:26;;;;;;;;;;;;;;;24.18;48.12;153735.95;1727820;82;20180;-61
2022/08/25 04:02:53;;;;;;;;;;;;;;;24.20;48.03;153741.19;1727580;83;20529;-61
2022/08/25 04:05:20;;;;;;;;;;;;;;;24.21;47.94;153743.86;1721478;82;21149;-62
2022/08/25 04:07:48;;;;;;;;;;;;;;;24.22;48.36;153746.47;1698615;84;20594;-61
2022/08/25 04:10:15;;;;;;;;;;;;;;;24.25;47.79;153754.33;1698404;83;20205;-62
2022/08/25 04:12:42;;;;;;;;;;;;;;;24.26;47.85;153756.94;1707970;84;20457;-62
2022/08/25 04:15:10;;;;;;;;;;;;;;;24.28;46.86;153762.17;1710598;84;20156;-71
2022/08/25 04:17:37;;;;;;;;;;;;;;;24.30;47.41;153767.41;1711220;83;21855;-62
2022/08/25 04:20:04;;;;;;;;;;;;;;;24.34;47.31;153775.25;1700022;83;20210;-71
2022/08/25 04:22:31;;;;;;;;;;;;;;;24.37;47.61;153783.11;1699441;84;20210;-70
2022/08/25 04:24:58;;;;;;;;;;;;;;;24.39;47.65;153789.67;1699076;83;20218;-70
2022/08/25 04:27:25;;;;;;;;;;;;;;;24.42;47.86;153796.19;1699469;84;20609;-71
2022/08/25 04:29:52;;;;;;;;;;;;;;;24.46;47.66;153806.70;1699009;84;21492;-68
2022/08/25 04:32:19;;;;;;;;;;;;;;;24.50;47.75;153817.17;1699046;84;20212;-70
2022/08/25 04:34:47;;;;;;;;;;;;;;;24.53;47.47;153823.69;1723593;83;20228;-70
2022/08/25 04:37:13;;;;;;;;;;;;;;;24.57;46.84;153834.20;1728000;83;20200;-71
2022/08/25 04:39:40;;;;;;;;;;;;;;;24.61;47.11;153845.95;1728228;82;20192;-71
2022/08/25 04:42:07;;;;;;;;;;;;;;;24.66;47.36;153856.48;1728176;82;21895;-69
2022/08/25 04:44:34;;;;;;;;;;;;;;;24.68;46.44;153861.72;1728110;82;20200;-62
2022/08/25 04:47:01;;;;;;;;;;;;;;;24.72;47.45;153872.19;1727792;83;20180;-62
2022/08/25 04:49:36;;;;;;;;;;;;;;;24.74;47.37;153877.42;1728021;83;20208;-63
2022/08/25 04:52:03;;;;;;;;;;;;;;;24.77;46.33;153885.31;1728301;82;20180;-62
2022/08/25 04:54:30;;;;;;;;;;;;;;;24.81;47.09;153895.78;1728575;83;21246;-61
2022/08/25 04:56:56;;;;;;;;;;;;;;;24.87;46.31;153911.53;1727861;82;20972;-61
2022/08/25 04:59:25;;;;;;;;;;;;;;;24.89;46.16;153916.78;1727957;82;20200;-71
2022/08/25 05:01:52;;;;;;;;;;;;;;;24.93;45.64;153924.63;1728772;83;20483;-69
2022/08/25 05:04:19;;;;;;;;;;;;;;;24.94;45.71;153927.25;1728182;82;20153;-69
2022/08/25 05:06:47;;;;;;;;;;;;;;;24.94;46.09;153927.25;1728244;83;21127;-61
2022/08/25 05:09:14;;;;;;;;;;;;;;;24.96;45.94;153932.48;1727958;83;20583;-61
2022/08/25 05:11:40;;;;;;;;;;;;;;;24.99;46.02;153940.33;1712188;83;20250;-62
2022/08/25 05:14:10;;;;;;;;;;;;;;;25.02;46.69;153948.19;1682244;85;20219;-70
2022/08/25 05:16:37;;;;;;;;;;;;;;;25.07;46.28;153961.28;1682397;85;20231;-72
2022/08/25 05:19:04;;;;;;;;;;;;;;;25.10;46.10;153969.17;1696752;83;21244;-62
2022/08/25 05:21:32;;;;;;;;;;;;;;;25.15;46.79;153980.94;1711583;83;20125;-62
2022/08/25 05:23:59;;;;;;;;;;;;;;;25.18;46.27;153990.13;1710820;83;20465;-63
2022/08/25 05:26:28;;;;;;;;;;;;;;;25.21;45.96;153995.36;1711129;83;20914;-62
2022/08/25 05:28:56;;;;;;;;;;;;;;;25.24;45.63;154003.22;1711201;83;20170;-62
2022/08/25 05:31:23;;;;;;;;;;;;;;;25.26;46.17;154008.45;1711399;83;21239;-62
2022/08/25 05:33:50;;;;;;;;;;;;;;;25.30;46.00;154018.92;1705333;83;20973;-62
2022/08/25 05:36:18;;;;;;;;;;;;;;;25.35;46.00;154032.06;1698838;84;20226;-63
2022/08/25 05:38:45;;;;;;;;;;;;;;;25.41;47.16;154047.77;1698901;83;20237;-61
2022/08/25 05:41:19;;;;;;;;;;;;;;;25.60;46.06;154095.00;1698509;84;20498;-61
2022/08/25 05:43:45;;;;;;;;;;;;;;;25.81;44.71;154148.70;1698409;84;21902;-69
2022/08/25 05:46:11;;;;;;;;;;;;;;;25.93;43.89;154178.84;1698772;84;20209;-62
2022/08/25 05:48:38;;;;;;;;;;;;;;;25.97;44.58;154189.33;1698703;84;21051;-61
2022/08/25 05:51:06;;;;;;;;;;;;;;;25.93;43.76;154177.56;1700815;83;20243;-61
2022/08/25 05:53:33;;;;;;;;;;;;;;;25.89;45.13;154169.70;1691925;84;20154;-71
2022/08/25 05:55:59;;;;;;;;;;;;;;;25.86;45.75;154160.52;1643484;86;21254;-70
2022/08/25 05:58:27;;;;;;;;;;;;;;;25.88;45.83;154165.75;1701826;84;20466;-62
2022/08/25 06:00:54;;;;;;;;;;;;;;;25.89;45.04;154169.70;1701615;84;20241;-62
2022/08/25 06:03:21;;;;;;;;;;;;;;;25.88;45.73;154165.75;1701757;84;20182;-61
2022/08/25 06:05:48;;;;;;;;;;;;;;;25.86;46.05;154160.52;1701600;84;20216;-61
2022/08/25 06:08:15;;;;;;;;;;;;;;;25.92;46.21;154174.94;1701456;83;21126;-61
2022/08/25 06:10:42;;;;;;;;;;;;;;;25.94;45.08;154180.19;1701575;84;20981;-61
2022/08/25 06:13:09;;;;;;;;;;;;;;;25.94;44.79;154180.19;1713487;83;20164;-61
2022/08/25 06:15:36;;;;;;;;;;;;;;;25.94;45.15;154181.47;1705743;83;20179;-69
2022/08/25 06:18:03;;;;;;;;;;;;;;;25.93;44.62;154178.84;1697739;83;20470;-71
2022/08/25 06:20:29;;;;;;;;;;;;;;;25.88;45.29;154167.09;1695845;83;21104;-72
2022/08/25 06:22:57;;;;;;;;;;;;;;;25.88;45.24;154165.75;1696338;83;20452;-70
2022/08/25 06:25:24;;;;;;;;;;;;;;;25.92;44.64;154176.23;1697455;83;20103;-70
2022/08/25 06:27:51;;;;;;;;;;;;;;;25.96;45.01;154186.70;1699138;83;21405;-70
2022/08/25 06:30:19;;;;;;;;;;;;;;;25.98;45.36;154192.00;1702454;83;20200;-70
2022/08/25 06:32:46;;;;;;;;;;;;;;;26.01;45.16;154199.84;1698819;82;21901;-70
2022/08/25 06:35:15;;;;;;;;;;;;;;;26.03;44.51;154203.75;1702343;82;20202;-70
2022/08/25 06:37:42;;;;;;;;;;;;;;;26.03;44.60;154205.09;1699920;84;20411;-69
2022/08/25 06:40:09;;;;;;;;;;;;;;;26.07;45.20;154212.95;1697776;83;20581;-70
2022/08/25 06:42:36;;;;;;;;;;;;;;;26.13;45.32;154228.66;1694879;83;20150;-71
2022/08/25 06:45:05;;;;;;;;;;;;;;;26.19;44.54;154244.44;1698711;83;21805;-71
2022/08/25 06:47:32;;;;;;;;;;;;;;;26.23;43.44;154254.95;1701325;83;20133;-71
2022/08/25 06:49:59;;;;;;;;;;;;;;;26.26;43.37;154262.81;1700542;83;20204;-70
2022/08/25 06:52:25;;;;;;;;;;;;;;;26.30;43.96;154271.97;1701135;83;20170;-70
2022/08/25 06:54:53;;;;;;;;;;;;;;;26.35;43.71;154283.77;1705729;84;20174;-70
2022/08/25 06:57:20;;;;;;;;;;;;;;;26.38;43.61;154292.97;1701918;83;21142;-70
2022/08/25 06:59:48;;;;;;;;;;;;;;;26.40;43.57;154296.88;1704148;83;20884;-70
2022/08/25 07:02:14;;;;;;;;;;;;;;;26.43;44.44;154306.06;1704730;83;20255;-70
2022/08/25 07:04:42;;;;;;;;;;;;;;;26.45;44.29;154310.02;1705556;83;20207;-70
2022/08/25 07:07:08;;;;;;;;;;;;;;;26.53;43.92;154330.98;1706826;83;20152;-70
2022/08/25 07:09:35;;;;;;;;;;;;;;;26.58;42.92;154344.08;1704925;83;21856;-72
2022/08/25 07:12:03;;;;;;;;;;;;;;;26.59;42.69;154345.41;1703160;83;20187;-71
2022/08/25 07:14:30;;;;;;;;;;;;;;;26.58;43.02;154344.08;1704583;84;20663;-70
2022/08/25 07:16:57;;;;;;;;;;;;;;;26.63;43.89;154355.89;1699671;83;20179;-71
2022/08/25 07:19:23;;;;;;;;;;;;;;;26.69;42.86;154371.61;1704326;83;20250;-71
2022/08/25 07:21:51;;;;;;;;;;;;;;;26.74;42.24;154383.44;1702523;83;21145;-70
2022/08/25 07:24:18;;;;;;;;;;;;;;;26.76;41.96;154388.67;1704239;83;21415;-70
2022/08/25 07:26:45;;;;;;;;;;;;;;;26.82;42.58;154404.39;1703553;83;20193;-70
2022/08/25 07:29:15;;;;;;;;;;;;;;;26.87;41.14;154416.27;1703104;83;20799;-70
2022/08/25 07:31:42;;;;;;;;;;;;;;;26.85;42.18;154412.31;1698319;83;20201;-69
2022/08/25 07:36:54;;;;;;;;;;;;;;;26.96;41.94;154438.56;1698379;84;21251;-70
2022/08/25 07:39:21;;;;;;;;;;;;;;;27.02;41.09;154454.28;1695965;82;20189;-69
2022/08/25 07:41:48;;;;;;;;;;;;;;;27.03;42.16;154456.91;1701428;83;20178;-70
2022/08/25 07:44:15;;;;;;;;;;;;;;;27.04;42.71;154459.52;1704339;84;20178;-70
2022/08/25 07:46:42;;;;;;;;;;;;;;;27.06;42.64;154463.47;1706735;83;22912;-69
2022/08/25 07:49:09;;;;;;;;;;;;;;;27.11;43.18;154477.91;1703799;83;20914;-72
2022/08/25 07:51:37;;;;;;;;;;;;;;;27.11;43.19;154477.91;1706020;83;20205;-70
2022/08/25 07:54:05;;;;;;;;;;;;;;;27.12;42.06;154480.53;1701931;83;20175;-69
2022/08/25 07:56:32;;;;;;;;;;;;;;;27.16;43.29;154491.03;1700156;83;20166;-69
2022/08/25 07:59:02;;;;;;;;;;;;;;;27.23;42.48;154508.08;1702788;83;21315;-69
2022/08/25 08:01:29;;;;;;;;;;;;;;;27.30;42.93;154526.44;1702341;83;20530;-70
2022/08/25 08:03:56;;;;;;;;;;;;;;;27.38;43.70;154546.11;1701418;83;20190;-71
2022/08/25 08:06:23;;;;;;;;;;;;;;;27.46;43.46;154565.80;1704434;83;20194;-71
2022/08/25 08:08:51;;;;;;;;;;;;;;;27.49;41.73;154573.66;1697425;84;20222;-72
2022/08/25 08:11:26;;;;;;;;;;;;;;;27.57;42.57;154593.39;1703151;83;21146;-71
2022/08/25 08:13:53;;;;;;;;;;;;;;;27.70;42.64;154627.47;1703021;84;20975;-70
2022/08/25 08:16:22;;;;;;;;;;;;;;;27.82;41.36;154656.36;1704140;83;20174;-71
2022/08/25 08:18:48;;;;;;;;;;;;;;;27.89;41.38;154674.72;1703650;83;20205;-71
2022/08/25 08:21:23;;;;;;;;;;;;;;;27.97;40.41;154694.41;1704649;83;20182;-70
2022/08/25 08:23:50;;;;;;;;;;;;;;;28.06;40.59;154716.72;1698214;83;21147;-72
2022/08/25 08:26:16;;;;;;;;;;;;;;;28.14;39.89;154737.69;1704443;83;20181;-70
2022/08/25 08:28:43;;;;;;;;;;;;;;;28.26;38.98;154769.27;1704029;84;20454;-71
2022/08/25 08:31:10;;;;;;;;;;;;;;;28.37;39.11;154795.48;1700953;84;20759;-70
2022/08/25 08:33:38;;;;;;;;;;;;;;;28.46;39.76;154819.14;1709210;82;20181;-70
2022/08/25 08:36:10;;;;;;;;;;;;;;;28.55;38.74;154842.75;1704469;82;22095;-70
2022/08/25 08:38:40;;;;;;;;;;;;;;;28.65;38.32;154866.41;1704012;83;20444;-71
2022/08/25 08:44:37;;;;;;;;;;;;;;;28.77;37.24;154897.87;1703132;83;20210;-70
2022/08/25 08:47:32;;;;;;;;;;;;;;;28.80;38.01;154905.80;1702175;84;20188;-70
2022/08/25 08:50:14;;;;;;;;;;;;;;;28.84;37.29;154915.00;1701988;83;21265;-70
2022/08/25 08:52:47;;;;;;;;;;;;;;;28.82;37.20;154911.05;1704974;82;20219;-68
2022/08/25 08:55:31;;;;;;;;;;;;;;;28.79;37.84;154903.17;1706299;82;20170;-68
2022/08/25 08:57:59;;;;;;;;;;;;;;;28.84;37.67;154915.00;1705182;82;20182;-69
2022/08/25 09:00:26;;;;;;;;;;;;;;;28.95;37.84;154942.58;1706148;82;20517;-68
2022/08/25 09:03:07;;;;;;;;;;;;;;;29.04;38.21;154966.19;1707655;82;21253;-68
2022/08/25 09:05:44;;;;;;;;;;;;;;;29.14;38.71;154992.47;1708573;81;20175;-68
2022/08/25 09:08:11;;;;;;;;;;;;;;;29.21;39.13;155008.22;1699741;83;20446;-68
2022/08/25 09:10:50;;;;;;;;;;;;;;;29.28;39.37;155027.92;1707277;83;20178;-69
2022/08/25 09:13:27;;;;;;;;;;;;;;;29.39;40.35;155055.50;1686721;82;20452;-68
2022/08/25 09:19:12;;;;;;;;;;;;;;;29.75;42.64;155144.86;1710934;82;20588;-69
2022/08/25 09:21:47;;;;;;;;;;;;;;;29.67;43.03;155126.44;1705840;84;20214;-68
2022/08/25 09:24:20;;;;;;;;;;;;;;;29.51;42.68;155084.41;1675886;84;20216;-67
2022/08/25 09:26:50;;;;;;;;;;;;;;;29.48;43.34;155076.53;1709727;82;20292;-67
2022/08/25 09:29:22;;;;;;;;;;;;;;;29.59;43.68;155105.45;1708808;83;21038;-67
2022/08/25 09:31:49;;;;;;;;;;;;;;;29.70;44.07;155133.03;1702842;82;20192;-61
2022/08/25 09:34:21;;;;;;;;;;;;;;;29.81;45.22;155161.91;1709918;82;20196;-61
2022/08/25 09:36:51;;;;;;;;;;;;;;;29.87;46.11;155176.36;1709802;83;20205;-61
2022/08/25 09:39:18;;;;;;;;;;;;;;;29.89;46.72;155181.61;1706874;82;20379;-62
2022/08/25 09:41:59;;;;;;;;;;;;;;;29.84;46.81;155168.48;1707822;82;21939;-61
2022/08/25 09:44:29;;;;;;;;;;;;;;;29.76;47.25;155147.50;1703684;82;20280;-62
2022/08/25 09:47:08;;;;;;;;;;;;;;;29.86;47.45;155173.73;1710699;82;20174;-69
2022/08/25 09:49:38;;;;;;;;;;;;;;;29.98;48.42;155203.94;1702957;82;20271;-68
2022/08/25 09:52:25;;;;;;;;;;;;;;;30.09;48.26;155232.91;1705306;83;20198;-68
2022/08/25 09:54:52;;;;;;;;;;;;;;;30.15;48.66;155247.33;1711628;82;21150;-68
2022/08/25 09:57:31;;;;;;;;;;;;;;;30.20;48.78;155259.17;1711593;82;20178;-69
2022/08/25 10:00:11;;;;;;;;;;;;;;;30.12;48.71;155239.45;1707909;84;20304;-68
2022/08/25 10:02:42;;;;;;;;;;;;;;;29.99;47.65;155207.91;1709692;83;20162;-67
2022/08/25 10:05:23;;;;;;;;;;;;;;;29.90;47.74;155184.23;1709765;82;20142;-61
2022/08/25 10:07:55;;;;;;;;;;;;;;;29.89;48.07;155181.61;1709565;82;21957;-61
2022/08/25 10:10:28;;;;;;;;;;;;;;;29.88;47.91;155178.98;1709714;82;20178;-61
2022/08/25 10:12:58;;;;;;;;;;;;;;;29.95;47.98;155197.36;1707642;82;20322;-61
2022/08/25 10:15:26;;;;;;;;;;;;;;;30.03;46.51;155217.13;1707138;84;20162;-61
2022/08/25 10:17:54;;;;;;;;;;;;;;;29.97;46.27;155202.66;1705783;84;20122;-61
2022/08/25 10:20:25;;;;;;;;;;;;;;;29.90;45.92;155184.23;1706718;82;21247;-60
2022/08/25 10:22:52;;;;;;;;;;;;;;;29.85;44.07;155171.11;1710613;82;20451;-61
2022/08/25 10:25:26;;;;;;;;;;;;;;;29.81;43.49;155160.61;1712331;82;20214;-62
2022/08/25 10:28:11;;;;;;;;;;;;;;;29.81;43.80;155160.61;1710368;82;20160;-62
2022/08/25 10:30:47;;;;;;;;;;;;;;;29.97;43.40;155201.31;1707542;82;20209;-62
2022/08/25 10:33:18;;;;;;;;;;;;;;;30.16;42.90;155249.95;1698216;82;21242;-62
2022/08/25 10:36:03;;;;;;;;;;;;;;;30.20;42.85;155260.50;1708166;83;20189;-61
2022/08/25 10:38:48;;;;;;;;;;;;;;;30.12;43.27;155239.45;1703133;83;20479;-61
2022/08/25 10:41:28;;;;;;;;;;;;;;;30.00;44.10;155209.19;1707917;83;20201;-61
2022/08/25 10:47:28;;;;;;;;;;;;;;;29.97;45.60;155202.66;1706973;84;21141;-62
2022/08/25 10:49:57;;;;;;;;;;;;;;;30.13;45.14;155242.08;1704727;84;20174;-62
2022/08/25 10:52:37;;;;;;;;;;;;;;;30.28;43.96;155281.50;1706031;83;20202;-61
2022/08/25 10:55:19;;;;;;;;;;;;;;;30.29;43.71;155284.13;1680651;84;20557;-61
2022/08/25 10:57:49;;;;;;;;;;;;;;;30.27;43.64;155278.88;1700772;84;20253;-62
2022/08/25 11:00:22;;;;;;;;;;;;;;;30.22;43.98;155265.75;1711952;82;21234;-62
2022/08/25 11:03:04;;;;;;;;;;;;;;;30.25;44.00;155273.63;1712065;82;20178;-62
2022/08/25 11:05:35;;;;;;;;;;;;;;;30.27;43.67;155278.88;1714620;82;20182;-61
2022/08/25 11:08:11;;;;;;;;;;;;;;;30.25;44.01;155272.30;1709150;82;20546;-62
2022/08/25 11:10:51;;;;;;;;;;;;;;;30.29;42.80;155284.13;1703862;82;20178;-61
2022/08/25 11:13:22;;;;;;;;;;;;;;;30.25;42.89;155273.63;1683547;83;21149;-61
2022/08/25 11:15:52;;;;;;;;;;;;;;;30.18;43.29;155255.25;1684322;84;20298;-61
2022/08/25 11:18:19;;;;;;;;;;;;;;;30.14;43.99;155244.70;1692194;83;20197;-61
2022/08/25 11:20:52;;;;;;;;;;;;;;;30.16;44.73;155249.95;1686462;83;20188;-61
2022/08/25 11:23:25;;;;;;;;;;;;;;;30.26;44.60;155276.25;1682290;83;20195;-60
2022/08/25 11:26:05;;;;;;;;;;;;;;;30.37;44.76;155303.84;1685375;83;21167;-61
2022/08/25 11:28:48;;;;;;;;;;;;;;;30.40;44.25;155311.72;1638732;85;20258;-60
2022/08/25 11:31:15;;;;;;;;;;;;;;;30.28;44.52;155281.50;1635775;85;20246;-60
2022/08/25 11:33:42;;;;;;;;;;;;;;;30.13;44.75;155242.08;1686668;83;20167;-70
2022/08/25 11:36:34;;;;;;;;;;;;;;;30.05;44.52;155222.38;1660206;84;20178;-69
2022/08/25 11:39:23;;;;;;;;;;;;;;;30.01;44.50;155213.20;1684973;83;21149;-68
2022/08/25 11:42:25;;;;;;;;;;;;;;;30.04;44.46;155218.45;1682944;84;20320;-68
2022/08/25 11:45:28;;;;;;;;;;;;;;;30.10;44.65;155234.20;1651509;85;20234;-69
2022/08/25 11:48:10;;;;;;;;;;;;;;;30.14;44.29;155244.70;1636281;85;20265;-67
2022/08/25 11:51:06;;;;;;;;;;;;;;;30.05;42.90;155221.08;1683726;83;20277;-69
2022/08/25 11:53:38;;;;;;;;;;;;;;;29.90;43.74;155182.94;1667394;83;22112;-68
2022/08/25 11:56:11;;;;;;;;;;;;;;;29.88;43.75;155178.98;1652096;85;20213;-69
2022/08/25 11:58:47;;;;;;;;;;;;;;;29.99;44.25;155207.91;1670126;84;20481;-67
2022/08/25 12:01:44;;;;;;;;;;;;;;;30.17;43.82;155252.58;1677777;84;20200;-68
2022/08/25 12:04:39;;;;;;;;;;;;;;;30.30;43.50;155286.75;1685272;82;20217;-69
2022/08/25 12:07:09;;;;;;;;;;;;;;;30.39;43.75;155307.75;1687017;83;21152;-69
2022/08/25 12:09:55;;;;;;;;;;;;;;;30.36;44.25;155299.89;1691651;83;20176;-66
2022/08/25 12:12:45;;;;;;;;;;;;;;;30.39;43.67;155307.75;1674942;84;20171;-67
2022/08/25 12:15:27;;;;;;;;;;;;;;;30.34;42.68;155294.63;1688487;83;20202;-61
2022/08/25 12:18:13;;;;;;;;;;;;;;;30.48;43.04;155331.44;1681880;84;20410;-61
2022/08/25 12:20:56;;;;;;;;;;;;;;;30.58;43.07;155357.69;1689254;83;21201;-61
2022/08/25 12:23:32;;;;;;;;;;;;;;;30.70;43.58;155386.67;1649081;85;20520;-60
2022/08/25 12:26:20;;;;;;;;;;;;;;;30.73;43.49;155394.56;1687879;83;20167;-60
2022/08/25 12:29:06;;;;;;;;;;;;;;;30.59;42.59;155360.31;1685691;83;20177;-60
2022/08/25 12:31:58;;;;;;;;;;;;;;;30.45;42.35;155323.56;1680773;84;20532;-60
2022/08/25 12:34:53;;;;;;;;;;;;;;;30.41;43.62;155314.34;1686646;83;22154;-61
2022/08/25 12:37:21;;;;;;;;;;;;;;;30.50;44.39;155336.69;1677869;84;20195;-61
2022/08/25 12:39:52;;;;;;;;;;;;;;;30.79;43.40;155410.31;1680797;84;20465;-61
2022/08/25 12:42:31;;;;;;;;;;;;;;;30.94;42.08;155448.41;1686199;83;20195;-62
2022/08/25 12:45:23;;;;;;;;;;;;;;;30.92;41.18;155441.88;1682443;84;20768;-61
2022/08/25 12:47:51;;;;;;;;;;;;;;;30.82;42.61;155418.19;1685450;83;22706;-61
2022/08/25 12:50:33;;;;;;;;;;;;;;;30.67;42.99;155380.09;1686272;83;20183;-61
2022/08/25 12:53:18;;;;;;;;;;;;;;;30.63;41.02;155369.58;1686468;84;20197;-68
2022/08/25 12:55:48;;;;;;;;;;;;;;;30.55;40.47;155348.53;1702527;82;20630;-68
2022/08/25 12:58:15;;;;;;;;;;;;;;;30.62;41.95;155365.63;1711644;81;20201;-71
2022/08/25 13:00:55;;;;;;;;;;;;;;;30.69;42.26;155384.05;1712812;82;21257;-61
2022/08/25 13:03:45;;;;;;;;;;;;;;;30.69;41.38;155384.05;1708999;82;20437;-67
2022/08/25 13:06:32;;;;;;;;;;;;;;;30.50;40.91;155335.34;1705782;82;20189;-68
2022/08/25 13:09:19;;;;;;;;;;;;;;;30.39;40.77;155307.75;1713068;82;20515;-62